sensor_id;sensor_type;location;lat;lon;timestamp;temperature;humidity
11284;DHT22;5698;47.332;11.180;2023-03-01T00:00:20;-3.10;99.90
11284;DHT22;5698;47.332;11.180;2023-03-01T00:02:47;-3.10;99.90
11284;DHT22;5698;47.332;11.180;2023-03-01T00:05:14;-3.20;99.90
11284;DHT22;5698;47.332;11.180;2023-03-01T00:07:41;-3.30;99.90
11284;DHT22;5698;47.332;11.180;2023-03-01T00:10:10;-3.20;99.90
11284;DHT22;5698;47.332;11.180;2023-03-01T00:12:38;-3.20;99.90
11284;DHT22;5698;47.332;11.180;2023-03-01T00:15:06;-3.20;99.90
11284;DHT22;5698;47.332;11.180;2023-03-01T00:17:33;-3.20;99.90
11284;DHT22;5698;47.332;11.180;2023-03-01T00:20:00;-3.20;99.90
11284;DHT22;5698;47.332;11.180;2023-03-01T00:22:28;-3.10;99.90
11284;DHT22;5698;47.332;11.180;2023-03-01T00:24:55;-3.00;99.90
11284;DHT22;5698;47.332;11.180;2023-03-01T00:27:22;-3.20;99.90
11284;DHT22;5698;47.332;11.180;2023-03-01T00:29:50;-3.20;99.90
11284;DHT22;5698;47.332;11.180;2023-03-01T00:32:17;-3.20;99.90
11284;DHT22;5698;47.332;11.180;2023-03-01T00:34:44;-3.10;99.90
11284;DHT22;5698;47.332;11.180;2023-03-01T00:37:19;-3.10;99.90
11284;DHT22;5698;47.332;11.180;2023-03-01T00:39:47;-3.00;99.90
11284;DHT22;5698;47.332;11.180;2023-03-01T00:42:14;-3.00;99.90
11284;DHT22;5698;47.332;11.180;2023-03-01T00:44:41;-2.90;99.90
11284;DHT22;5698;47.332;11.180;2023-03-01T00:47:09;-3.00;99.90
11284;DHT22;5698;47.332;11.180;2023-03-01T00:49:36;-2.90;99.90
11284;DHT22;5698;47.332;11.180;2023-03-01T00:52:04;-2.90;99.90
11284;DHT22;5698;47.332;11.180;2023-03-01T00:54:31;-2.90;99.90
11284;DHT22;5698;47.332;11.180;2023-03-01T00:56:58;-3.00;99.90
11284;DHT22;5698;47.332;11.180;2023-03-01T00:59:25;-2.90;99.90
11284;DHT22;5698;47.332;11.180;2023-03-01T01:01:51;-2.80;99.90
11284;DHT22;5698;47.332;11.180;2023-03-01T01:04:20;-2.80;99.90
11284;DHT22;5698;47.332;11.180;2023-03-01T01:06:48;-2.70;99.90
11284;DHT22;5698;47.332;11.180;2023-03-01T01:09:17;-2.60;99.90
11284;DHT22;5698;47.332;11.180;2023-03-01T01:11:44;-2.50;99.90
11284;DHT22;5698;47.332;11.180;2023-03-01T01:14:12;-2.50;99.90
11284;DHT22;5698;47.332;11.180;2023-03-01T01:16:39;-2.50;99.90
11284;DHT22;5698;47.332;11.180;2023-03-01T01:19:06;-2.70;99.90
11284;DHT22;5698;47.332;11.180;2023-03-01T01:21:35;-2.70;99.90
11284;DHT22;5698;47.332;11.180;2023-03-01T01:24:03;-2.70;99.90
11284;DHT22;5698;47.332;11.180;2023-03-01T01:26:32;-2.70;99.90
11284;DHT22;5698;47.332;11.180;2023-03-01T01:29:00;-2.80;99.90
11284;DHT22;5698;47.332;11.180;2023-03-01T01:31:27;-2.80;99.90
11284;DHT22;5698;47.332;11.180;2023-03-01T01:33:56;-2.80;99.90
11284;DHT22;5698;47.332;11.180;2023-03-01T01:36:23;-2.70;99.90
11284;DHT22;5698;47.332;11.180;2023-03-01T01:38:52;-2.70;99.90
11284;DHT22;5698;47.332;11.180;2023-03-01T01:41:20;-2.80;99.90
11284;DHT22;5698;47.332;11.180;2023-03-01T01:43:49;-2.80;99.90
11284;DHT22;5698;47.332;11.180;2023-03-01T01:46:37;-2.80;99.90
11284;DHT22;5698;47.332;11.180;2023-03-01T01:49:06;-2.80;99.90
11284;DHT22;5698;47.332;11.180;2023-03-01T01:51:38;-2.70;99.90
11284;DHT22;5698;47.332;11.180;2023-03-01T01:54:12;-2.70;99.90
11284;DHT22;5698;47.332;11.180;2023-03-01T01:56:43;-2.70;99.90
11284;DHT22;5698;47.332;11.180;2023-03-01T01:59:11;-2.70;99.90
11284;DHT22;5698;47.332;11.180;2023-03-01T02:01:38;-2.70;99.90
11284;DHT22;5698;47.332;11.180;2023-03-01T02:04:05;-2.60;99.90
11284;DHT22;5698;47.332;11.180;2023-03-01T02:06:36;-2.60;99.90
11284;DHT22;5698;47.332;11.180;2023-03-01T02:09:11;-2.70;99.90
11284;DHT22;5698;47.332;11.180;2023-03-01T02:11:39;-2.80;99.90
11284;DHT22;5698;47.332;11.180;2023-03-01T02:14:06;-2.90;99.90
11284;DHT22;5698;47.332;11.180;2023-03-01T02:16:34;-2.90;99.90
11284;DHT22;5698;47.332;11.180;2023-03-01T02:19:03;-2.90;99.90
11284;DHT22;5698;47.332;11.180;2023-03-01T02:21:38;-2.90;99.90
11284;DHT22;5698;47.332;11.180;2023-03-01T02:24:28;-2.90;99.90
11284;DHT22;5698;47.332;11.180;2023-03-01T02:27:00;-3.10;99.90
11284;DHT22;5698;47.332;11.180;2023-03-01T02:29:29;-3.10;99.90
11284;DHT22;5698;47.332;11.180;2023-03-01T02:31:58;-3.10;99.90
11284;DHT22;5698;47.332;11.180;2023-03-01T02:34:27;-3.10;99.90
11284;DHT22;5698;47.332;11.180;2023-03-01T02:37:00;-3.10;99.90
11284;DHT22;5698;47.332;11.180;2023-03-01T02:39:40;-3.10;99.90
11284;DHT22;5698;47.332;11.180;2023-03-01T02:42:12;-3.10;99.90
11284;DHT22;5698;47.332;11.180;2023-03-01T02:44:39;-3.10;99.90
11284;DHT22;5698;47.332;11.180;2023-03-01T02:47:06;-3.20;99.90
11284;DHT22;5698;47.332;11.180;2023-03-01T02:49:35;-3.20;99.90
11284;DHT22;5698;47.332;11.180;2023-03-01T02:52:21;-3.20;99.90
11284;DHT22;5698;47.332;11.180;2023-03-01T02:54:56;-3.20;99.90
11284;DHT22;5698;47.332;11.180;2023-03-01T02:57:25;-3.20;99.90
11284;DHT22;5698;47.332;11.180;2023-03-01T02:59:54;-3.20;99.90
11284;DHT22;5698;47.332;11.180;2023-03-01T03:02:24;-3.20;99.90
11284;DHT22;5698;47.332;11.180;2023-03-01T03:05:03;-3.20;99.90
11284;DHT22;5698;47.332;11.180;2023-03-01T03:07:32;-3.20;99.90
11284;DHT22;5698;47.332;11.180;2023-03-01T03:10:01;-3.30;99.90
11284;DHT22;5698;47.332;11.180;2023-03-01T03:12:29;-3.40;99.90
11284;DHT22;5698;47.332;11.180;2023-03-01T03:14:56;-3.40;99.90
11284;DHT22;5698;47.332;11.180;2023-03-01T03:17:23;-3.40;99.90
11284;DHT22;5698;47.332;11.180;2023-03-01T03:19:50;-3.30;99.90
11284;DHT22;5698;47.332;11.180;2023-03-01T03:22:17;-3.30;99.90
11284;DHT22;5698;47.332;11.180;2023-03-01T03:24:44;-3.30;99.90
11284;DHT22;5698;47.332;11.180;2023-03-01T03:27:12;-3.30;99.90
11284;DHT22;5698;47.332;11.180;2023-03-01T03:29:42;-3.40;99.90
11284;DHT22;5698;47.332;11.180;2023-03-01T03:32:09;-3.30;99.90
11284;DHT22;5698;47.332;11.180;2023-03-01T03:34:36;-3.30;99.90
11284;DHT22;5698;47.332;11.180;2023-03-01T03:37:03;-3.30;99.90
11284;DHT22;5698;47.332;11.180;2023-03-01T03:39:50;-3.40;99.90
11284;DHT22;5698;47.332;11.180;2023-03-01T03:42:21;-3.40;99.90
11284;DHT22;5698;47.332;11.180;2023-03-01T03:44:48;-3.40;99.90
11284;DHT22;5698;47.332;11.180;2023-03-01T03:47:15;-3.40;99.90
11284;DHT22;5698;47.332;11.180;2023-03-01T03:49:42;-3.40;99.90
11284;DHT22;5698;47.332;11.180;2023-03-01T03:52:09;-3.50;99.90
11284;DHT22;5698;47.332;11.180;2023-03-01T03:54:39;-3.50;99.90
11284;DHT22;5698;47.332;11.180;2023-03-01T03:57:06;-3.40;99.90
11284;DHT22;5698;47.332;11.180;2023-03-01T03:59:34;-3.40;99.90
11284;DHT22;5698;47.332;11.180;2023-03-01T04:02:01;-3.40;99.90
11284;DHT22;5698;47.332;11.180;2023-03-01T04:04:28;-3.40;99.90
11284;DHT22;5698;47.332;11.180;2023-03-01T04:06:55;-3.40;99.90
11284;DHT22;5698;47.332;11.180;2023-03-01T04:09:22;-3.50;99.90
11284;DHT22;5698;47.332;11.180;2023-03-01T04:11:49;-3.50;99.90
11284;DHT22;5698;47.332;11.180;2023-03-01T04:14:16;-3.50;99.90
11284;DHT22;5698;47.332;11.180;2023-03-01T04:16:44;-3.60;99.90
11284;DHT22;5698;47.332;11.180;2023-03-01T04:19:11;-3.60;99.90
11284;DHT22;5698;47.332;11.180;2023-03-01T04:21:40;-3.60;99.90
11284;DHT22;5698;47.332;11.180;2023-03-01T04:24:07;-3.60;99.90
11284;DHT22;5698;47.332;11.180;2023-03-01T04:26:35;-3.60;99.90
11284;DHT22;5698;47.332;11.180;2023-03-01T04:29:02;-3.60;99.90
11284;DHT22;5698;47.332;11.180;2023-03-01T04:31:29;-3.60;99.90
11284;DHT22;5698;47.332;11.180;2023-03-01T04:33:57;-3.70;99.90
11284;DHT22;5698;47.332;11.180;2023-03-01T04:36:26;-3.60;99.90
11284;DHT22;5698;47.332;11.180;2023-03-01T04:38:53;-3.60;99.90
11284;DHT22;5698;47.332;11.180;2023-03-01T04:41:22;-3.60;99.90
11284;DHT22;5698;47.332;11.180;2023-03-01T04:43:49;-3.60;99.90
11284;DHT22;5698;47.332;11.180;2023-03-01T04:46:18;-3.60;99.90
11284;DHT22;5698;47.332;11.180;2023-03-01T04:48:46;-3.60;99.90
11284;DHT22;5698;47.332;11.180;2023-03-01T04:51:15;-3.70;99.90
11284;DHT22;5698;47.332;11.180;2023-03-01T04:53:44;-3.60;99.90
11284;DHT22;5698;47.332;11.180;2023-03-01T04:56:11;-3.50;99.90
11284;DHT22;5698;47.332;11.180;2023-03-01T04:58:39;-3.50;99.90
11284;DHT22;5698;47.332;11.180;2023-03-01T05:01:09;-3.50;99.90
11284;DHT22;5698;47.332;11.180;2023-03-01T05:03:41;-3.60;99.90
11284;DHT22;5698;47.332;11.180;2023-03-01T05:06:08;-3.60;99.90
11284;DHT22;5698;47.332;11.180;2023-03-01T05:08:38;-3.60;99.90
11284;DHT22;5698;47.332;11.180;2023-03-01T05:11:05;-3.60;99.90
11284;DHT22;5698;47.332;11.180;2023-03-01T05:13:35;-3.60;99.90
11284;DHT22;5698;47.332;11.180;2023-03-01T05:16:03;-3.70;99.90
11284;DHT22;5698;47.332;11.180;2023-03-01T05:18:34;-3.70;99.90
11284;DHT22;5698;47.332;11.180;2023-03-01T05:21:04;-3.70;99.90
11284;DHT22;5698;47.332;11.180;2023-03-01T05:23:32;-3.70;99.90
11284;DHT22;5698;47.332;11.180;2023-03-01T05:26:01;-3.80;99.90
11284;DHT22;5698;47.332;11.180;2023-03-01T05:28:30;-3.80;99.90
11284;DHT22;5698;47.332;11.180;2023-03-01T05:30:57;-3.70;99.90
11284;DHT22;5698;47.332;11.180;2023-03-01T05:33:25;-3.70;99.90
11284;DHT22;5698;47.332;11.180;2023-03-01T05:35:53;-3.70;99.90
11284;DHT22;5698;47.332;11.180;2023-03-01T05:38:21;-3.60;99.90
11284;DHT22;5698;47.332;11.180;2023-03-01T05:40:48;-3.70;99.90
11284;DHT22;5698;47.332;11.180;2023-03-01T05:43:17;-3.70;99.90
11284;DHT22;5698;47.332;11.180;2023-03-01T05:45:44;-3.70;99.90
11284;DHT22;5698;47.332;11.180;2023-03-01T05:48:12;-3.60;99.90
11284;DHT22;5698;47.332;11.180;2023-03-01T05:50:41;-3.60;99.90
11284;DHT22;5698;47.332;11.180;2023-03-01T05:53:11;-3.60;99.90
11284;DHT22;5698;47.332;11.180;2023-03-01T05:55:39;-3.70;99.90
11284;DHT22;5698;47.332;11.180;2023-03-01T05:58:09;-3.70;99.90
11284;DHT22;5698;47.332;11.180;2023-03-01T06:00:38;-3.70;99.90
11284;DHT22;5698;47.332;11.180;2023-03-01T06:03:05;-3.80;99.90
11284;DHT22;5698;47.332;11.180;2023-03-01T06:05:32;-3.80;99.90
11284;DHT22;5698;47.332;11.180;2023-03-01T06:07:59;-3.80;99.90
11284;DHT22;5698;47.332;11.180;2023-03-01T06:10:26;-3.80;99.90
11284;DHT22;5698;47.332;11.180;2023-03-01T06:12:54;-3.90;99.90
11284;DHT22;5698;47.332;11.180;2023-03-01T06:15:22;-3.90;99.90
11284;DHT22;5698;47.332;11.180;2023-03-01T06:17:51;-3.90;99.90
11284;DHT22;5698;47.332;11.180;2023-03-01T06:20:19;-3.90;99.90
11284;DHT22;5698;47.332;11.180;2023-03-01T06:22:47;-3.90;99.90
11284;DHT22;5698;47.332;11.180;2023-03-01T06:25:17;-3.80;99.90
11284;DHT22;5698;47.332;11.180;2023-03-01T06:27:44;-3.90;99.90
11284;DHT22;5698;47.332;11.180;2023-03-01T06:30:13;-3.90;99.90
11284;DHT22;5698;47.332;11.180;2023-03-01T06:32:40;-3.90;99.90
11284;DHT22;5698;47.332;11.180;2023-03-01T06:35:11;-3.90;99.90
11284;DHT22;5698;47.332;11.180;2023-03-01T06:37:39;-3.90;99.90
11284;DHT22;5698;47.332;11.180;2023-03-01T06:40:07;-3.90;99.90
11284;DHT22;5698;47.332;11.180;2023-03-01T06:42:37;-4.00;99.90
11284;DHT22;5698;47.332;11.180;2023-03-01T06:45:05;-4.00;99.90
11284;DHT22;5698;47.332;11.180;2023-03-01T06:47:33;-4.00;99.90
11284;DHT22;5698;47.332;11.180;2023-03-01T06:50:01;-4.00;99.90
11284;DHT22;5698;47.332;11.180;2023-03-01T06:52:29;-4.00;99.90
11284;DHT22;5698;47.332;11.180;2023-03-01T06:54:56;-4.00;99.90
11284;DHT22;5698;47.332;11.180;2023-03-01T06:57:23;-4.00;99.90
11284;DHT22;5698;47.332;11.180;2023-03-01T06:59:50;-4.00;99.90
11284;DHT22;5698;47.332;11.180;2023-03-01T07:02:17;-4.00;99.90
11284;DHT22;5698;47.332;11.180;2023-03-01T07:04:44;-4.00;99.90
11284;DHT22;5698;47.332;11.180;2023-03-01T07:07:11;-4.00;99.90
11284;DHT22;5698;47.332;11.180;2023-03-01T07:09:39;-4.00;99.90
11284;DHT22;5698;47.332;11.180;2023-03-01T07:12:06;-4.00;99.90
11284;DHT22;5698;47.332;11.180;2023-03-01T07:14:33;-4.00;99.90
11284;DHT22;5698;47.332;11.180;2023-03-01T07:17:00;-4.00;99.90
11284;DHT22;5698;47.332;11.180;2023-03-01T07:19:27;-4.00;99.90
11284;DHT22;5698;47.332;11.180;2023-03-01T07:21:54;-4.20;99.90
11284;DHT22;5698;47.332;11.180;2023-03-01T07:24:22;-3.90;99.90
11284;DHT22;5698;47.332;11.180;2023-03-01T07:26:51;-3.90;99.90
11284;DHT22;5698;47.332;11.180;2023-03-01T07:29:19;-3.90;99.90
11284;DHT22;5698;47.332;11.180;2023-03-01T07:31:46;-3.90;99.90
11284;DHT22;5698;47.332;11.180;2023-03-01T07:34:13;-3.90;99.90
11284;DHT22;5698;47.332;11.180;2023-03-01T07:36:40;-3.90;99.90
11284;DHT22;5698;47.332;11.180;2023-03-01T07:39:09;-3.90;99.90
11284;DHT22;5698;47.332;11.180;2023-03-01T07:41:36;-3.80;99.90
11284;DHT22;5698;47.332;11.180;2023-03-01T07:44:05;-3.70;99.90
11284;DHT22;5698;47.332;11.180;2023-03-01T07:46:32;-3.90;99.90
11284;DHT22;5698;47.332;11.180;2023-03-01T07:48:59;-3.90;99.90
11284;DHT22;5698;47.332;11.180;2023-03-01T07:51:26;-3.80;99.90
11284;DHT22;5698;47.332;11.180;2023-03-01T07:53:53;-3.80;99.90
11284;DHT22;5698;47.332;11.180;2023-03-01T07:56:20;-3.80;99.90
11284;DHT22;5698;47.332;11.180;2023-03-01T07:58:47;-3.90;99.90
11284;DHT22;5698;47.332;11.180;2023-03-01T08:01:17;-3.90;99.90
11284;DHT22;5698;47.332;11.180;2023-03-01T08:03:45;-3.80;99.90
11284;DHT22;5698;47.332;11.180;2023-03-01T08:06:15;-3.80;99.90
11284;DHT22;5698;47.332;11.180;2023-03-01T08:08:42;-3.70;99.90
11284;DHT22;5698;47.332;11.180;2023-03-01T08:11:11;-3.70;99.90
11284;DHT22;5698;47.332;11.180;2023-03-01T08:13:38;-3.70;99.90
11284;DHT22;5698;47.332;11.180;2023-03-01T08:16:07;-3.70;99.90
11284;DHT22;5698;47.332;11.180;2023-03-01T08:18:36;-3.60;99.90
11284;DHT22;5698;47.332;11.180;2023-03-01T08:21:04;-3.60;99.90
11284;DHT22;5698;47.332;11.180;2023-03-01T08:23:31;-3.60;99.90
11284;DHT22;5698;47.332;11.180;2023-03-01T08:26:05;-3.50;99.90
11284;DHT22;5698;47.332;11.180;2023-03-01T08:28:33;-3.50;99.90
11284;DHT22;5698;47.332;11.180;2023-03-01T08:30:59;-3.50;99.90
11284;DHT22;5698;47.332;11.180;2023-03-01T08:33:27;-3.40;99.90
11284;DHT22;5698;47.332;11.180;2023-03-01T08:36:03;-3.40;99.90
11284;DHT22;5698;47.332;11.180;2023-03-01T08:38:32;-3.40;99.90
11284;DHT22;5698;47.332;11.180;2023-03-01T08:41:00;-3.30;99.90
11284;DHT22;5698;47.332;11.180;2023-03-01T08:43:27;-3.20;99.90
11284;DHT22;5698;47.332;11.180;2023-03-01T08:45:54;-3.20;99.90
11284;DHT22;5698;47.332;11.180;2023-03-01T08:48:24;-3.10;99.90
11284;DHT22;5698;47.332;11.180;2023-03-01T08:50:51;-3.10;99.90
11284;DHT22;5698;47.332;11.180;2023-03-01T08:53:19;-3.10;99.90
11284;DHT22;5698;47.332;11.180;2023-03-01T08:55:46;-3.10;99.90
11284;DHT22;5698;47.332;11.180;2023-03-01T08:58:13;-3.00;99.90
11284;DHT22;5698;47.332;11.180;2023-03-01T09:00:40;-3.00;99.90
11284;DHT22;5698;47.332;11.180;2023-03-01T09:03:07;-2.80;99.90
11284;DHT22;5698;47.332;11.180;2023-03-01T09:05:34;-2.80;99.90
11284;DHT22;5698;47.332;11.180;2023-03-01T09:08:02;-2.70;99.90
11284;DHT22;5698;47.332;11.180;2023-03-01T09:10:30;-2.70;99.90
11284;DHT22;5698;47.332;11.180;2023-03-01T09:12:57;-2.60;99.90
11284;DHT22;5698;47.332;11.180;2023-03-01T09:15:24;-2.70;99.90
11284;DHT22;5698;47.332;11.180;2023-03-01T09:17:51;-2.70;99.90
11284;DHT22;5698;47.332;11.180;2023-03-01T09:20:18;-2.70;99.90
11284;DHT22;5698;47.332;11.180;2023-03-01T09:22:45;-2.70;99.90
11284;DHT22;5698;47.332;11.180;2023-03-01T09:25:12;-2.70;99.90
11284;DHT22;5698;47.332;11.180;2023-03-01T09:27:41;-2.50;99.90
11284;DHT22;5698;47.332;11.180;2023-03-01T09:30:09;-2.60;99.90
11284;DHT22;5698;47.332;11.180;2023-03-01T09:32:37;-2.60;99.90
11284;DHT22;5698;47.332;11.180;2023-03-01T09:35:08;-2.50;99.90
11284;DHT22;5698;47.332;11.180;2023-03-01T09:37:36;-2.50;99.90
11284;DHT22;5698;47.332;11.180;2023-03-01T09:40:04;-2.40;99.90
11284;DHT22;5698;47.332;11.180;2023-03-01T09:42:33;-2.30;99.90
11284;DHT22;5698;47.332;11.180;2023-03-01T09:45:05;-2.20;99.90
11284;DHT22;5698;47.332;11.180;2023-03-01T09:47:34;-2.20;99.90
11284;DHT22;5698;47.332;11.180;2023-03-01T09:50:05;-2.10;99.90
11284;DHT22;5698;47.332;11.180;2023-03-01T09:52:41;-2.00;99.90
11284;DHT22;5698;47.332;11.180;2023-03-01T09:55:11;-1.90;99.90
11284;DHT22;5698;47.332;11.180;2023-03-01T09:57:46;-1.90;99.90
11284;DHT22;5698;47.332;11.180;2023-03-01T10:00:24;-1.90;99.90
11284;DHT22;5698;47.332;11.180;2023-03-01T10:02:58;-1.70;99.90
11284;DHT22;5698;47.332;11.180;2023-03-01T10:05:34;-1.70;99.90
11284;DHT22;5698;47.332;11.180;2023-03-01T10:08:33;-1.50;99.90
11284;DHT22;5698;47.332;11.180;2023-03-01T10:11:02;-1.40;99.90
11284;DHT22;5698;47.332;11.180;2023-03-01T10:13:36;-1.30;99.90
11284;DHT22;5698;47.332;11.180;2023-03-01T10:16:10;-1.00;99.90
11284;DHT22;5698;47.332;11.180;2023-03-01T10:18:39;-0.50;99.90
11284;DHT22;5698;47.332;11.180;2023-03-01T10:21:14;0.00;99.90
11284;DHT22;5698;47.332;11.180;2023-03-01T10:23:42;0.70;99.90
11284;DHT22;5698;47.332;11.180;2023-03-01T10:26:20;1.20;99.90
11284;DHT22;5698;47.332;11.180;2023-03-01T10:28:56;1.50;99.90
11284;DHT22;5698;47.332;11.180;2023-03-01T10:31:36;1.80;99.90
11284;DHT22;5698;47.332;11.180;2023-03-01T10:34:09;1.80;99.90
11284;DHT22;5698;47.332;11.180;2023-03-01T10:36:39;2.20;99.90
11284;DHT22;5698;47.332;11.180;2023-03-01T10:39:14;2.20;99.90
11284;DHT22;5698;47.332;11.180;2023-03-01T10:42:01;2.30;99.90
11284;DHT22;5698;47.332;11.180;2023-03-01T10:44:38;2.80;99.90
11284;DHT22;5698;47.332;11.180;2023-03-01T10:47:17;3.10;99.90
11284;DHT22;5698;47.332;11.180;2023-03-01T10:49:59;3.40;99.90
11284;DHT22;5698;47.332;11.180;2023-03-01T10:52:30;3.80;99.90
11284;DHT22;5698;47.332;11.180;2023-03-01T10:54:59;4.10;99.90
11284;DHT22;5698;47.332;11.180;2023-03-01T10:57:32;4.30;99.90
11284;DHT22;5698;47.332;11.180;2023-03-01T11:00:19;4.50;99.90
11284;DHT22;5698;47.332;11.180;2023-03-01T11:02:51;4.50;99.90
11284;DHT22;5698;47.332;11.180;2023-03-01T11:05:22;4.40;99.90
11284;DHT22;5698;47.332;11.180;2023-03-01T11:07:52;4.70;99.90
11284;DHT22;5698;47.332;11.180;2023-03-01T11:10:22;5.00;99.90
11284;DHT22;5698;47.332;11.180;2023-03-01T11:12:51;5.50;99.90
11284;DHT22;5698;47.332;11.180;2023-03-01T11:15:26;5.90;99.90
11284;DHT22;5698;47.332;11.180;2023-03-01T11:17:56;5.90;99.90
11284;DHT22;5698;47.332;11.180;2023-03-01T11:20:30;5.90;99.90
11284;DHT22;5698;47.332;11.180;2023-03-01T11:23:01;5.90;99.80
11284;DHT22;5698;47.332;11.180;2023-03-01T11:25:33;6.00;99.90
11284;DHT22;5698;47.332;11.180;2023-03-01T11:28:04;5.80;99.70
11284;DHT22;5698;47.332;11.180;2023-03-01T11:30:35;6.10;99.90
11284;DHT22;5698;47.332;11.180;2023-03-01T11:33:13;6.60;99.70
11284;DHT22;5698;47.332;11.180;2023-03-01T11:35:48;6.90;98.30
11284;DHT22;5698;47.332;11.180;2023-03-01T11:38:21;7.00;98.40
11284;DHT22;5698;47.332;11.180;2023-03-01T11:40:52;6.80;98.40
11284;DHT22;5698;47.332;11.180;2023-03-01T11:43:31;7.10;98.00
11284;DHT22;5698;47.332;11.180;2023-03-01T11:46:36;6.60;97.10
11284;DHT22;5698;47.332;11.180;2023-03-01T11:49:33;6.60;98.20
11284;DHT22;5698;47.332;11.180;2023-03-01T11:52:09;6.80;97.80
11284;DHT22;5698;47.332;11.180;2023-03-01T11:54:49;7.20;97.80
11284;DHT22;5698;47.332;11.180;2023-03-01T11:57:27;7.30;97.10
11284;DHT22;5698;47.332;11.180;2023-03-01T12:00:11;7.50;97.00
11284;DHT22;5698;47.332;11.180;2023-03-01T12:06:05;7.90;97.00
11284;DHT22;5698;47.332;11.180;2023-03-01T12:08:41;8.00;96.20
11284;DHT22;5698;47.332;11.180;2023-03-01T12:11:23;8.60;96.50
11284;DHT22;5698;47.332;11.180;2023-03-01T12:14:03;8.80;94.60
11284;DHT22;5698;47.332;11.180;2023-03-01T12:17:04;9.30;95.10
11284;DHT22;5698;47.332;11.180;2023-03-01T12:19:50;9.50;93.80
11284;DHT22;5698;47.332;11.180;2023-03-01T12:22:30;9.40;93.30
11284;DHT22;5698;47.332;11.180;2023-03-01T12:25:24;9.60;93.00
11284;DHT22;5698;47.332;11.180;2023-03-01T12:28:14;9.80;92.40
11284;DHT22;5698;47.332;11.180;2023-03-01T12:30:58;9.90;92.00
11284;DHT22;5698;47.332;11.180;2023-03-01T12:33:33;9.20;91.40
11284;DHT22;5698;47.332;11.180;2023-03-01T12:36:26;9.30;93.00
11284;DHT22;5698;47.332;11.180;2023-03-01T12:39:09;8.90;92.80
11284;DHT22;5698;47.332;11.180;2023-03-01T12:41:48;9.00;92.40
11284;DHT22;5698;47.332;11.180;2023-03-01T12:44:34;9.00;92.60
11284;DHT22;5698;47.332;11.180;2023-03-01T12:47:14;9.40;93.10
11284;DHT22;5698;47.332;11.180;2023-03-01T12:49:50;9.60;92.10
11284;DHT22;5698;47.332;11.180;2023-03-01T12:52:22;9.70;92.40
11284;DHT22;5698;47.332;11.180;2023-03-01T12:54:54;10.10;92.30
11284;DHT22;5698;47.332;11.180;2023-03-01T12:57:26;10.70;92.00
11284;DHT22;5698;47.332;11.180;2023-03-01T13:00:17;10.90;90.50
11284;DHT22;5698;47.332;11.180;2023-03-01T13:02:53;10.80;89.60
11284;DHT22;5698;47.332;11.180;2023-03-01T13:05:29;10.70;88.70
11284;DHT22;5698;47.332;11.180;2023-03-01T13:08:05;10.20;89.80
11284;DHT22;5698;47.332;11.180;2023-03-01T13:10:43;10.10;90.00
11284;DHT22;5698;47.332;11.180;2023-03-01T13:13:19;10.00;90.50
11284;DHT22;5698;47.332;11.180;2023-03-01T13:15:46;10.10;89.70
11284;DHT22;5698;47.332;11.180;2023-03-01T13:18:32;10.00;90.60
11284;DHT22;5698;47.332;11.180;2023-03-01T13:21:01;9.90;90.40
11284;DHT22;5698;47.332;11.180;2023-03-01T13:23:31;9.70;91.20
11284;DHT22;5698;47.332;11.180;2023-03-01T13:26:14;10.20;90.90
11284;DHT22;5698;47.332;11.180;2023-03-01T13:28:48;10.50;90.20
11284;DHT22;5698;47.332;11.180;2023-03-01T13:34:47;10.50;87.60
11284;DHT22;5698;47.332;11.180;2023-03-01T13:37:28;9.90;89.00
11284;DHT22;5698;47.332;11.180;2023-03-01T13:40:03;9.60;90.00
11284;DHT22;5698;47.332;11.180;2023-03-01T13:42:40;9.70;90.70
11284;DHT22;5698;47.332;11.180;2023-03-01T13:45:21;10.00;90.70
11284;DHT22;5698;47.332;11.180;2023-03-01T13:47:54;10.30;90.20
11284;DHT22;5698;47.332;11.180;2023-03-01T13:50:25;10.30;88.70
11284;DHT22;5698;47.332;11.180;2023-03-01T13:52:56;10.30;88.10
11284;DHT22;5698;47.332;11.180;2023-03-01T13:55:30;10.40;89.70
11284;DHT22;5698;47.332;11.180;2023-03-01T13:58:02;10.50;90.10
11284;DHT22;5698;47.332;11.180;2023-03-01T14:00:33;10.30;88.50
11284;DHT22;5698;47.332;11.180;2023-03-01T14:03:11;10.10;90.30
11284;DHT22;5698;47.332;11.180;2023-03-01T14:05:40;9.80;90.50
11284;DHT22;5698;47.332;11.180;2023-03-01T14:08:20;9.60;91.20
11284;DHT22;5698;47.332;11.180;2023-03-01T14:10:55;9.30;91.80
11284;DHT22;5698;47.332;11.180;2023-03-01T14:13:37;9.00;91.80
11284;DHT22;5698;47.332;11.180;2023-03-01T14:16:28;8.60;92.20
11284;DHT22;5698;47.332;11.180;2023-03-01T14:19:09;8.20;93.30
11284;DHT22;5698;47.332;11.180;2023-03-01T14:21:42;7.90;94.20
11284;DHT22;5698;47.332;11.180;2023-03-01T14:24:16;7.50;93.40
11284;DHT22;5698;47.332;11.180;2023-03-01T14:26:43;7.10;94.50
11284;DHT22;5698;47.332;11.180;2023-03-01T14:29:33;7.00;95.50
11284;DHT22;5698;47.332;11.180;2023-03-01T14:32:12;6.70;95.80
11284;DHT22;5698;47.332;11.180;2023-03-01T14:34:45;6.60;96.80
11284;DHT22;5698;47.332;11.180;2023-03-01T14:37:19;6.40;97.00
11284;DHT22;5698;47.332;11.180;2023-03-01T14:39:47;6.20;97.40
11284;DHT22;5698;47.332;11.180;2023-03-01T14:42:14;5.90;98.10
11284;DHT22;5698;47.332;11.180;2023-03-01T14:44:46;5.70;98.50
11284;DHT22;5698;47.332;11.180;2023-03-01T14:47:16;5.50;99.10
11284;DHT22;5698;47.332;11.180;2023-03-01T14:49:44;5.30;99.50
11284;DHT22;5698;47.332;11.180;2023-03-01T14:52:19;5.20;99.90
11284;DHT22;5698;47.332;11.180;2023-03-01T14:54:49;5.00;99.90
11284;DHT22;5698;47.332;11.180;2023-03-01T14:57:19;5.00;99.90
11284;DHT22;5698;47.332;11.180;2023-03-01T14:59:49;4.90;99.90
11284;DHT22;5698;47.332;11.180;2023-03-01T15:02:20;4.90;99.90
11284;DHT22;5698;47.332;11.180;2023-03-01T15:04:51;4.80;99.90
11284;DHT22;5698;47.332;11.180;2023-03-01T15:07:19;4.70;99.90
11284;DHT22;5698;47.332;11.180;2023-03-01T15:09:46;4.60;99.90
11284;DHT22;5698;47.332;11.180;2023-03-01T15:12:40;4.60;99.90
11284;DHT22;5698;47.332;11.180;2023-03-01T15:15:34;4.40;99.90
11284;DHT22;5698;47.332;11.180;2023-03-01T15:18:04;4.30;99.90
11284;DHT22;5698;47.332;11.180;2023-03-01T15:20:33;4.10;99.90
11284;DHT22;5698;47.332;11.180;2023-03-01T15:23:03;3.90;99.90
11284;DHT22;5698;47.332;11.180;2023-03-01T15:25:32;3.80;99.90
11284;DHT22;5698;47.332;11.180;2023-03-01T15:28:01;3.70;99.90
11284;DHT22;5698;47.332;11.180;2023-03-01T15:30:31;3.70;99.90
11284;DHT22;5698;47.332;11.180;2023-03-01T15:33:27;3.60;99.90
11284;DHT22;5698;47.332;11.180;2023-03-01T15:35:55;3.60;99.90
11284;DHT22;5698;47.332;11.180;2023-03-01T15:38:28;3.60;99.90
11284;DHT22;5698;47.332;11.180;2023-03-01T15:40:58;3.60;99.90
11284;DHT22;5698;47.332;11.180;2023-03-01T15:43:43;3.50;99.90
11284;DHT22;5698;47.332;11.180;2023-03-01T15:46:23;3.40;99.90
11284;DHT22;5698;47.332;11.180;2023-03-01T15:48:55;3.30;99.90
11284;DHT22;5698;47.332;11.180;2023-03-01T15:51:28;3.10;99.90
11284;DHT22;5698;47.332;11.180;2023-03-01T15:54:00;3.00;99.90
11284;DHT22;5698;47.332;11.180;2023-03-01T15:56:28;2.90;99.90
11284;DHT22;5698;47.332;11.180;2023-03-01T15:58:59;2.70;99.90
11284;DHT22;5698;47.332;11.180;2023-03-01T16:01:26;2.60;99.90
11284;DHT22;5698;47.332;11.180;2023-03-01T16:03:55;2.60;99.90
11284;DHT22;5698;47.332;11.180;2023-03-01T16:06:24;2.70;99.90